Terminal Aerodrome Forecast
Issued by NWS Green Bay, WI

Home | Current Version | Previous Version | Text Only | Print | Product List | Glossary On
Versions: 1 2 3 4 5 6 7 8 9 10 11 12 13 14 15 16 17 18 19 20 21 22 23 24 25 26 27 28 29 30 31 32 33 34 35 36
000
FTUS43 KGRB 042325
TAFGRB
TAF
KGRB 042325Z 0500/0524 34006KT P6SM SCT060 BKN080
     FM050100 04005KT P6SM SCT080
      TEMPO 0508/0512 2SM BR
     FM051500 09006KT P6SM BKN040=

USA.gov is the U.S. government's official web portal to all federal, state and local government web resources and services.